Station Historical Data
Daily Summary for September 18, 2017 Units:  Metric    English   Both
« Previous Day
Next Day »
Daily Weekly Monthly Yearly Custom
  High: Low: Average:
Temperature: 28.1 °C 16.7 °C 22 °C
Dew Point: 19.8 °C 15.3 °C 17.6 °C
Humidity: 93% 57% 78%
Wind Speed: 8km/h 0km/h 1km/h
Wind Gust: 11.3km/h - -
Wind- - WSW
Pressure: 1018.5 hPa 1016.1 hPa -
Precipitation: 0 mm    
Historical Graphs
 
 
Tabular Data for September 18, 2017
Time Temperature Dew Point Pressure Wind Wind Speed Wind Gust Humidity Rainfall Rate (Hourly)
00:04 19.3 °C 16.7 °C 1018.5 hPa Calm     85% 0 mm
00:09 19.3 °C 16.7 °C 1018.2 hPa Calm     85% 0 mm
00:14 19.3 °C 16.7 °C 1018.2 hPa Calm     85% 0 mm
00:19 19.3 °C 16.9 °C 1018.2 hPa Calm     86% 0 mm
00:24 19.3 °C 16.7 °C 1018.2 hPa Calm     85% 0 mm
00:29 19.3 °C 16.7 °C 1018.2 hPa Calm     85% 0 mm
00:34 19.3 °C 16.9 °C 1018.2 hPa Calm     86% 0 mm
00:39 19.3 °C 16.9 °C 1017.8 hPa Calm     86% 0 mm
00:44 19.2 °C 16.8 °C 1017.8 hPa Calm     86% 0 mm
00:49 19.1 °C 16.7 °C 1017.8 hPa Calm     86% 0 mm
00:54 19.1 °C 16.8 °C 1017.8 hPa Calm     87% 0 mm
00:59 18.8 °C 16.4 °C 1017.8 hPa Calm     86% 0 mm
01:04 18.7 °C 16.5 °C 1017.8 hPa Calm     87% 0 mm
01:09 18.6 °C 16.3 °C 1017.8 hPa Calm     87% 0 mm
01:14 18.4 °C 16.2 °C 1017.8 hPa Calm     87% 0 mm
01:19 18.3 °C 16.3 °C 1017.8 hPa Calm     88% 0 mm
01:24 18.3 °C 16.3 °C 1017.8 hPa Calm     88% 0 mm
01:29 18.3 °C 16.3 °C 1017.8 hPa Calm     88% 0 mm
01:34 18.2 °C 16.4 °C 1017.8 hPa Calm     89% 0 mm
01:39 18.2 °C 16.3 °C 1017.8 hPa Calm     89% 0 mm
01:44 18.1 °C 16.2 °C 1017.8 hPa Calm     89% 0 mm
01:49 18 °C 16.2 °C 1017.8 hPa Calm     89% 0 mm
01:54 17.9 °C 16.1 °C 1017.8 hPa Calm     89% 0 mm
01:59 17.8 °C 16 °C 1017.8 hPa Calm     89% 0 mm
02:04 17.8 °C 16.1 °C 1017.8 hPa Calm     90% 0 mm
02:09 17.7 °C 16.1 °C 1017.8 hPa Calm     90% 0 mm
02:14 17.7 °C 16.1 °C 1017.8 hPa Calm     90% 0 mm
02:19 17.6 °C 15.9 °C 1017.5 hPa Calm     90% 0 mm
02:24 17.6 °C 15.9 °C 1017.5 hPa Calm     90% 0 mm
02:34 17.6 °C 15.9 °C 1017.5 hPa Calm     90% 0 mm
02:39 17.6 °C 15.9 °C 1017.5 hPa Calm     90% 0 mm
02:44 17.6 °C 16.1 °C 1017.5 hPa Calm     91% 0 mm
02:49 17.6 °C 16.1 °C 1017.5 hPa Calm     91% 0 mm
02:54 17.6 °C 16.1 °C 1017.2 hPa Calm     91% 0 mm
02:59 17.4 °C 15.9 °C 1017.2 hPa Calm     91% 0 mm
03:04 17.4 °C 15.9 °C 1017.2 hPa Calm     91% 0 mm
03:09 17.4 °C 15.9 °C 1017.2 hPa Calm     91% 0 mm
03:14 17.5 °C 16 °C 1017.2 hPa Calm     91% 0 mm
03:19 17.6 °C 16.1 °C 1017.2 hPa Calm     91% 0 mm
03:24 17.4 °C 15.9 °C 1017.2 hPa Calm     91% 0 mm
03:29 17.4 °C 15.9 °C 1017.2 hPa Calm     91% 0 mm
03:34 17.5 °C 16 °C 1017.2 hPa Calm     91% 0 mm
03:39 17.5 °C 16.2 °C 1017.2 hPa Calm     92% 0 mm
03:44 17.5 °C 16 °C 1016.8 hPa Calm     91% 0 mm
03:49 17.3 °C 15.8 °C 1016.8 hPa Calm     91% 0 mm
03:54 17.3 °C 15.8 °C 1017.2 hPa Calm     91% 0 mm
03:59 17.2 °C 15.7 °C 1017.2 hPa Calm     91% 0 mm
04:04 17.3 °C 15.9 °C 1017.2 hPa Calm     92% 0 mm
04:09 17.2 °C 15.8 °C 1017.2 hPa Calm     92% 0 mm
04:14 17.2 °C 15.9 °C 1017.2 hPa Calm     92% 0 mm
04:19 17.1 °C 15.6 °C 1017.2 hPa Calm     91% 0 mm
04:24 17.2 °C 15.8 °C 1017.2 hPa Calm     92% 0 mm
04:29 17.3 °C 15.9 °C 1017.2 hPa Calm     92% 0 mm
04:34 17.1 °C 15.7 °C 1017.2 hPa Calm     92% 0 mm
04:39 16.9 °C 15.4 °C 1017.2 hPa Calm     91% 0 mm
04:44 16.9 °C 15.6 °C 1017.2 hPa Calm     92% 0 mm
04:49 16.8 °C 15.3 °C 1017.2 hPa Calm     91% 0 mm
04:54 16.8 °C 15.5 °C 1017.2 hPa Calm     92% 0 mm
04:59 16.8 °C 15.5 °C 1017.2 hPa Calm     92% 0 mm
05:04 16.9 °C 15.6 °C 1017.2 hPa Calm     92% 0 mm
05:09 16.8 °C 15.5 °C 1017.2 hPa Calm     92% 0 mm
05:14 16.8 °C 15.5 °C 1017.2 hPa Calm     92% 0 mm
05:19 16.8 °C 15.5 °C 1017.2 hPa Calm     92% 0 mm
05:24 16.8 °C 15.5 °C 1017.2 hPa Calm     92% 0 mm
05:29 16.7 °C 15.4 °C 1017.5 hPa Calm     92% 0 mm
05:34 16.7 °C 15.4 °C 1017.5 hPa Calm     92% 0 mm
05:39 16.7 °C 15.4 °C 1017.5 hPa Calm     92% 0 mm
05:44 16.8 °C 15.7 °C 1017.5 hPa Calm     93% 0 mm
05:49 16.9 °C 15.7 °C 1017.5 hPa Calm     93% 0 mm
05:54 17 °C 15.7 °C 1017.5 hPa Calm     92% 0 mm
05:59 17.1 °C 15.8 °C 1017.5 hPa Calm     92% 0 mm
06:04 17.1 °C 15.7 °C 1017.5 hPa Calm     92% 0 mm
06:09 17.1 °C 15.7 °C 1017.5 hPa Calm     92% 0 mm
06:14 17.1 °C 15.7 °C 1017.5 hPa Calm     92% 0 mm
06:19 17.1 °C 15.7 °C 1017.5 hPa Calm     92% 0 mm
06:24 17 °C 15.7 °C 1017.5 hPa Calm     92% 0 mm
06:29 17 °C 15.7 °C 1017.5 hPa Calm     92% 0 mm
06:34 17.1 °C 15.7 °C 1017.5 hPa Calm     92% 0 mm
06:39 17.1 °C 15.7 °C 1017.5 hPa Calm     92% 0 mm
06:44 17.1 °C 15.7 °C 1017.5 hPa Calm     92% 0 mm
06:49 17.2 °C 16 °C 1017.5 hPa Calm     93% 0 mm
06:54 17.2 °C 16 °C 1017.8 hPa Calm     93% 0 mm
06:59 17.2 °C 15.8 °C 1017.8 hPa Calm     92% 0 mm
07:04 17.2 °C 15.8 °C 1017.8 hPa Calm     92% 0 mm
07:09 17.1 °C 15.8 °C 1017.8 hPa Calm     92% 0 mm
07:14 17.2 °C 15.8 °C 1017.8 hPa Calm     92% 0 mm
07:19 17.3 °C 15.9 °C 1018.2 hPa Calm     92% 0 mm
07:24 17.3 °C 16 °C 1018.2 hPa Calm     92% 0 mm
07:29 17.4 °C 16.1 °C 1017.8 hPa Calm     92% 0 mm
07:34 17.4 °C 16.1 °C 1017.8 hPa Calm     92% 0 mm
07:39 17.5 °C 16.2 °C 1017.8 hPa Calm     92% 0 mm
07:44 17.6 °C 16.2 °C 1017.8 hPa Calm     92% 0 mm
07:49 17.6 °C 16.3 °C 1017.8 hPa Calm     92% 0 mm
07:54 17.8 °C 16.4 °C 1017.8 hPa Calm     92% 0 mm
07:59 17.9 °C 16.6 °C 1018.2 hPa Calm     92% 0 mm
08:04 18 °C 16.5 °C 1017.8 hPa Calm     91% 0 mm
08:09 18.1 °C 16.6 °C 1017.8 hPa Calm     91% 0 mm
08:14 18.3 °C 16.8 °C 1017.8 hPa Calm     91% 0 mm
08:19 18.4 °C 16.8 °C 1017.8 hPa Calm     90% 0 mm
08:24 18.7 °C 17 °C 1017.8 hPa Calm     90% 0 mm
08:29 18.9 °C 17.1 °C 1017.8 hPa Calm   4.8 km/h 89% 0 mm
08:34 19.1 °C 17.1 °C 1017.8 hPa SSE 1.6 km/h 6.4 km/h 88% 0 mm
08:39 19.4 °C 17.4 °C 1017.8 hPa SSE 1.6 km/h 6.4 km/h 88% 0 mm
08:44 19.7 °C 17.4 °C 1017.8 hPa Calm   4.8 km/h 87% 0 mm
08:49 20.1 °C 17.7 °C 1018.2 hPa Calm     86% 0 mm
08:54 20.4 °C 17.8 °C 1017.8 hPa Calm     85% 0 mm
08:59 20.6 °C 17.8 °C 1017.8 hPa Calm     84% 0 mm
09:04 20.8 °C 17.7 °C 1017.8 hPa Calm     82% 0 mm
09:09 21 °C 18 °C 1017.5 hPa Calm     83% 0 mm
09:14 21.4 °C 18.2 °C 1017.8 hPa Calm     82% 0 mm
09:19 21.7 °C 18.1 °C 1017.8 hPa Calm     80% 0 mm
09:24 22.1 °C 18.4 °C 1017.8 hPa Calm     80% 0 mm
09:29 22.2 °C 18.2 °C 1017.8 hPa Calm     78% 0 mm
09:34 22.6 °C 18.7 °C 1018.2 hPa Calm     79% 0 mm
09:39 22.9 °C 18.7 °C 1018.2 hPa Calm   6.4 km/h 77% 0 mm
09:44 23.1 °C 18.7 °C 1018.2 hPa SSE 1.6 km/h 6.4 km/h 76% 0 mm
09:49 23.4 °C 18.9 °C 1018.2 hPa South 3.2 km/h 6.4 km/h 76% 0 mm
09:54 23.6 °C 18.9 °C 1018.2 hPa WSW 3.2 km/h 4.8 km/h 75% 0 mm
09:59 23.9 °C 18.8 °C 1018.2 hPa SW 3.2 km/h 6.4 km/h 73% 0 mm
10:04 24.1 °C 18.9 °C 1018.2 hPa Calm   6.4 km/h 73% 0 mm
10:09 24.3 °C 18.7 °C 1018.2 hPa SW 1.6 km/h 6.4 km/h 71% 0 mm
10:14 24.3 °C 18.7 °C 1018.2 hPa SW 1.6 km/h 8 km/h 71% 0 mm
10:19 24.4 °C 18.6 °C 1018.2 hPa SW 3.2 km/h 8 km/h 70% 0 mm
10:24 24.7 °C 18.8 °C 1017.8 hPa SW 4.8 km/h 9.7 km/h 70% 0 mm
10:29 24.7 °C 19.1 °C 1017.8 hPa SW 3.2 km/h 8 km/h 71% 0 mm
10:34 24.8 °C 19 °C 1017.8 hPa Calm   8 km/h 70% 0 mm
10:39 24.9 °C 18.9 °C 1017.8 hPa SW 3.2 km/h 8 km/h 69% 0 mm
10:44 24.9 °C 18.9 °C 1017.8 hPa WSW 3.2 km/h 8 km/h 69% 0 mm
10:49 25.1 °C 19.3 °C 1017.8 hPa WNW 3.2 km/h 6.4 km/h 70% 0 mm
10:54 25.2 °C 19.1 °C 1017.8 hPa WNW 1.6 km/h 6.4 km/h 69% 0 mm
10:59 25.2 °C 18.9 °C 1017.8 hPa WNW 1.6 km/h 4.8 km/h 68% 0 mm
11:04 25.3 °C 18.9 °C 1017.8 hPa Calm   4.8 km/h 68% 0 mm
11:09 25.2 °C 18.9 °C 1017.8 hPa WSW 3.2 km/h 9.7 km/h 68% 0 mm
11:19 25.6 °C 19 °C 1017.8 hPa WSW 3.2 km/h 6.4 km/h 67% 0 mm
11:24 25.6 °C 18.6 °C 1017.8 hPa Calm   4.8 km/h 65% 0 mm
11:29 25.8 °C 19 °C 1017.8 hPa WSW 1.6 km/h 4.8 km/h 66% 0 mm
11:34 26.3 °C 19.2 °C 1017.8 hPa Calm   6.4 km/h 65% 0 mm
11:39 26.5 °C 19.1 °C 1017.8 hPa WSW 1.6 km/h 6.4 km/h 64% 0 mm
11:44 26.7 °C 19.6 °C 1017.8 hPa WSW 1.6 km/h 6.4 km/h 65% 0 mm
11:49 26.8 °C 19.7 °C 1017.8 hPa WSW 3.2 km/h 8 km/h 65% 0 mm
11:54 26.6 °C 18.9 °C 1017.8 hPa SW 3.2 km/h 8 km/h 63% 0 mm
11:59 26.4 °C 19.1 °C 1017.8 hPa SSW 1.6 km/h 8 km/h 64% 0 mm
12:04 26.7 °C 19.1 °C 1017.8 hPa SW 1.6 km/h 8 km/h 63% 0 mm
12:09 26.9 °C 19.5 °C 1017.8 hPa WSW 3.2 km/h 6.4 km/h 64% 0 mm
12:14 27.2 °C 19.1 °C 1017.8 hPa Calm   8 km/h 61% 0 mm
12:19 27.2 °C 19.3 °C 1017.8 hPa SSW 4.8 km/h 8 km/h 62% 0 mm
12:24 27.4 °C 19.4 °C 1017.5 hPa WSW 1.6 km/h 6.4 km/h 62% 0 mm
12:29 27.2 °C 19.1 °C 1017.8 hPa South 4.8 km/h 8 km/h 61% 0 mm
12:34 27.2 °C 19.8 °C 1017.5 hPa WSW 8 km/h 11.3 km/h 64% 0 mm
12:39 27.4 °C 19.5 °C 1017.5 hPa WSW 4.8 km/h 11.3 km/h 62% 0 mm
12:44 27.3 °C 18.8 °C 1017.5 hPa WSW 4.8 km/h 11.3 km/h 60% 0 mm
12:49 27.5 °C 19.3 °C 1017.5 hPa SSW 4.8 km/h 11.3 km/h 61% 0 mm
12:54 27.4 °C 19.3 °C 1017.5 hPa SSW 3.2 km/h 8 km/h 61% 0 mm
12:59 27.7 °C 19.2 °C 1017.5 hPa SW 3.2 km/h 9.7 km/h 60% 0 mm
13:04 27.7 °C 19.7 °C 1017.5 hPa WSW 3.2 km/h 9.7 km/h 62% 0 mm
13:09 27.9 °C 19.7 °C 1017.5 hPa WSW 3.2 km/h 8 km/h 61% 0 mm
13:14 27.7 °C 19.5 °C 1017.5 hPa WSW 4.8 km/h 9.7 km/h 61% 0 mm
13:19 27.6 °C 19.3 °C 1017.5 hPa WSW 8 km/h 9.7 km/h 61% 0 mm
13:24 27.3 °C 19.1 °C 1017.2 hPa WSW 1.6 km/h 11.3 km/h 61% 0 mm
13:29 27.5 °C 19.6 °C 1017.5 hPa West 3.2 km/h 9.7 km/h 62% 0 mm
13:34 27.3 °C 19.1 °C 1017.2 hPa West 8 km/h 11.3 km/h 61% 0 mm
13:39 27.2 °C 18.8 °C 1017.2 hPa WSW 6.4 km/h 11.3 km/h 60% 0 mm
13:44 27.2 °C 19 °C 1017.2 hPa WSW 4.8 km/h 11.3 km/h 61% 0 mm
13:49 27.6 °C 19.7 °C 1016.8 hPa WSW 4.8 km/h 11.3 km/h 62% 0 mm
13:54 27.6 °C 19.2 °C 1016.8 hPa West 4.8 km/h 8 km/h 60% 0 mm
13:59 27.7 °C 19.2 °C 1016.8 hPa West 6.4 km/h 9.7 km/h 60% 0 mm
14:04 27.7 °C 18.7 °C 1016.8 hPa WSW 6.4 km/h 8 km/h 58% 0 mm
14:09 27.7 °C 18.7 °C 1016.8 hPa South 3.2 km/h 8 km/h 58% 0 mm
14:14 27.6 °C 18.6 °C 1016.8 hPa SW 4.8 km/h 9.7 km/h 58% 0 mm
14:19 27.5 °C 19.3 °C 1016.5 hPa SW 3.2 km/h 9.7 km/h 61% 0 mm
14:24 27.7 °C 18.7 °C 1016.5 hPa WSW 3.2 km/h 11.3 km/h 58% 0 mm
14:29 27.9 °C 19.1 °C 1016.5 hPa West 4.8 km/h 11.3 km/h 59% 0 mm
14:34 28.1 °C 19 °C 1016.5 hPa WSW 4.8 km/h 8 km/h 58% 0 mm
14:39 27.8 °C 18.6 °C 1016.5 hPa West 6.4 km/h 11.3 km/h 57% 0 mm
14:44 27.6 °C 18.9 °C 1016.8 hPa NW 8 km/h 8 km/h 59% 0 mm
14:49 27.6 °C 19.1 °C 1016.5 hPa Calm   9.7 km/h 60% 0 mm
14:55 27.4 °C 19 °C 1016.5 hPa West 3.2 km/h 8 km/h 60% 0 mm
15:09 27.2 °C 18.2 °C 1016.8 hPa West 3.2 km/h 8 km/h 58% 0 mm
15:14 27.3 °C 18.6 °C 1016.8 hPa West 3.2 km/h 8 km/h 59% 0 mm
15:19 27.2 °C 17.9 °C 1016.8 hPa West 3.2 km/h 6.4 km/h 57% 0 mm
15:24 27.1 °C 18.1 °C 1016.5 hPa WSW 1.6 km/h 8 km/h 58% 0 mm
15:29 27.3 °C 18.8 °C 1016.5 hPa WSW 1.6 km/h 6.4 km/h 60% 0 mm
15:34 27.3 °C 18.3 °C 1016.5 hPa WSW 1.6 km/h 6.4 km/h 58% 0 mm
15:39 27.2 °C 18.4 °C 1016.5 hPa SW 3.2 km/h 6.4 km/h 59% 0 mm
15:44 27.2 °C 18.2 °C 1016.5 hPa SW 1.6 km/h 6.4 km/h 58% 0 mm
15:49 27.2 °C 18.4 °C 1016.5 hPa Calm   6.4 km/h 59% 0 mm
15:54 27.2 °C 17.9 °C 1016.5 hPa West 1.6 km/h 6.4 km/h 57% 0 mm
15:59 27 °C 17.8 °C 1016.5 hPa West 3.2 km/h 6.4 km/h 57% 0 mm
16:04 26.9 °C 18 °C 1016.5 hPa West 3.2 km/h 6.4 km/h 58% 0 mm
16:09 27 °C 18.3 °C 1016.5 hPa West 1.6 km/h 6.4 km/h 59% 0 mm
16:14 26.9 °C 18.2 °C 1016.5 hPa SW 4.8 km/h 8 km/h 59% 0 mm
16:20 26.9 °C 18.5 °C 1016.5 hPa WSW 3.2 km/h 8 km/h 60% 0 mm
16:30 26.9 °C 18.8 °C 1016.1 hPa SW 3.2 km/h 8 km/h 61% 0 mm
16:35 26.9 °C 19.1 °C 1016.1 hPa WSW 3.2 km/h 8 km/h 62% 0 mm
16:39 26.9 °C 19.1 °C 1016.1 hPa West 1.6 km/h 6.4 km/h 62% 0 mm
16:44 26.9 °C 19.1 °C 1016.1 hPa WNW 1.6 km/h 8 km/h 62% 0 mm
16:49 26.8 °C 18.2 °C 1016.1 hPa WNW 1.6 km/h 8 km/h 59% 0 mm
16:54 26.8 °C 18.6 °C 1016.1 hPa WNW 1.6 km/h 6.4 km/h 61% 0 mm
16:59 26.7 °C 18.3 °C 1016.1 hPa Calm   6.4 km/h 60% 0 mm
17:04 26.6 °C 18.2 °C 1016.1 hPa WNW 1.6 km/h 6.4 km/h 60% 0 mm
17:09 26.6 °C 18.2 °C 1016.1 hPa Calm   4.8 km/h 60% 0 mm
17:14 26.6 °C 17.9 °C 1016.1 hPa Calm   4.8 km/h 59% 0 mm
17:19 26.6 °C 18.2 °C 1016.1 hPa West 4.8 km/h 6.4 km/h 60% 0 mm
17:24 26.4 °C 18.3 °C 1016.1 hPa West 1.6 km/h 6.4 km/h 61% 0 mm
17:29 26.4 °C 17.8 °C 1016.1 hPa West 3.2 km/h 4.8 km/h 59% 0 mm
17:34 26.6 °C 17.6 °C 1016.1 hPa West 1.6 km/h 6.4 km/h 58% 0 mm
17:39 26.8 °C 18.1 °C 1016.1 hPa WNW 1.6 km/h 4.8 km/h 59% 0 mm
17:44 26.9 °C 17.9 °C 1016.1 hPa West 3.2 km/h 6.4 km/h 58% 0 mm
17:49 27.1 °C 18.1 °C 1016.1 hPa West 3.2 km/h 6.4 km/h 58% 0 mm
17:54 26.9 °C 18.4 °C 1016.1 hPa WSW 1.6 km/h 6.4 km/h 60% 0 mm
17:59 26.8 °C 18.1 °C 1016.1 hPa West 1.6 km/h 6.4 km/h 59% 0 mm
18:04 26.6 °C 17.9 °C 1016.1 hPa Calm   6.4 km/h 59% 0 mm
18:09 26.6 °C 18.2 °C 1016.1 hPa Calm   4.8 km/h 60% 0 mm
18:14 26.4 °C 17.8 °C 1016.1 hPa West 1.6 km/h 4.8 km/h 59% 0 mm
18:19 26.4 °C 17.7 °C 1016.1 hPa Calm     59% 0 mm
18:24 26.3 °C 17.9 °C 1016.1 hPa Calm     60% 0 mm
18:29 26 °C 17.9 °C 1016.1 hPa Calm     61% 0 mm
18:34 25.9 °C 17.8 °C 1016.1 hPa Calm     61% 0 mm
18:39 25.8 °C 17.7 °C 1016.1 hPa Calm     61% 0 mm
18:44 25.7 °C 17.6 °C 1016.1 hPa Calm     61% 0 mm
18:49 25.7 °C 18.1 °C 1016.1 hPa Calm     63% 0 mm
18:54 25.4 °C 18.1 °C 1016.5 hPa Calm     64% 0 mm
18:59 25.2 °C 18.4 °C 1016.5 hPa Calm     66% 0 mm
19:04 24.8 °C 18.5 °C 1016.5 hPa Calm     68% 0 mm
19:09 24.6 °C 18.8 °C 1016.1 hPa Calm     70% 0 mm
19:14 24.5 °C 18.9 °C 1016.5 hPa Calm   4.8 km/h 71% 0 mm
19:19 24.3 °C 18.7 °C 1016.5 hPa Calm   3.2 km/h 71% 0 mm
19:24 24.1 °C 18.9 °C 1016.5 hPa Calm     73% 0 mm
19:29 24.1 °C 18.9 °C 1016.5 hPa Calm     73% 0 mm
19:34 23.8 °C 18.7 °C 1016.5 hPa Calm     73% 0 mm
19:39 23.6 °C 18.7 °C 1016.5 hPa Calm     74% 0 mm
19:44 23.3 °C 18.6 °C 1016.5 hPa Calm     75% 0 mm
19:49 23 °C 18.6 °C 1016.5 hPa Calm     76% 0 mm
19:54 22.9 °C 18.4 °C 1016.5 hPa Calm     76% 0 mm
19:59 22.8 °C 18.3 °C 1016.5 hPa Calm     76% 0 mm
20:04 22.7 °C 18.4 °C 1016.5 hPa Calm     77% 0 mm
20:09 22.6 °C 18.3 °C 1016.5 hPa Calm     77% 0 mm
20:14 22.4 °C 18.4 °C 1016.5 hPa Calm     78% 0 mm
20:19 22.2 °C 18.4 °C 1016.5 hPa Calm     79% 0 mm
20:24 22.2 °C 18.3 °C 1016.5 hPa Calm     79% 0 mm
20:29 22.1 °C 18.3 °C 1016.5 hPa Calm     79% 0 mm
20:34 21.9 °C 18.3 °C 1016.5 hPa Calm     80% 0 mm
20:39 21.8 °C 18.2 °C 1016.5 hPa Calm     80% 0 mm
20:44 21.7 °C 18.3 °C 1016.5 hPa Calm     81% 0 mm
20:49 21.7 °C 18.3 °C 1016.8 hPa Calm     81% 0 mm
20:54 21.6 °C 18.2 °C 1016.8 hPa Calm     81% 0 mm
20:59 21.6 °C 18.2 °C 1016.5 hPa Calm     81% 0 mm
21:04 21.4 °C 18.2 °C 1016.5 hPa Calm     82% 0 mm
21:09 21.2 °C 18 °C 1016.5 hPa Calm     82% 0 mm
21:14 21.2 °C 17.9 °C 1016.5 hPa Calm     82% 0 mm
21:19 21.1 °C 18.1 °C 1016.5 hPa Calm     83% 0 mm
21:24 21.2 °C 18.2 °C 1016.5 hPa Calm     83% 0 mm
21:29 21.1 °C 18.1 °C 1016.5 hPa Calm     83% 0 mm
21:34 21 °C 18 °C 1016.5 hPa Calm     83% 0 mm
21:39 20.9 °C 18.1 °C 1016.5 hPa Calm     84% 0 mm
21:44 20.9 °C 18.1 °C 1016.5 hPa Calm     84% 0 mm
21:49 20.8 °C 18.2 °C 1016.5 hPa Calm     85% 0 mm
21:54 20.7 °C 18.1 °C 1016.5 hPa Calm     85% 0 mm
21:59 20.7 °C 18.1 °C 1016.5 hPa Calm     85% 0 mm
22:04 20.6 °C 17.9 °C 1016.5 hPa Calm     85% 0 mm
22:09 20.5 °C 17.9 °C 1016.5 hPa Calm     85% 0 mm
22:14 20.3 °C 17.9 °C 1016.5 hPa Calm     86% 0 mm
22:19 20.2 °C 17.8 °C 1016.5 hPa Calm     86% 0 mm
22:24 20.1 °C 17.7 °C 1016.5 hPa Calm     86% 0 mm
22:29 20.2 °C 17.9 °C 1016.5 hPa Calm     87% 0 mm
22:34 20.2 °C 18 °C 1016.5 hPa Calm     87% 0 mm
22:39 20.3 °C 18.1 °C 1016.5 hPa Calm     87% 0 mm
22:44 20.2 °C 17.8 °C 1016.8 hPa Calm     86% 0 mm
22:49 20.1 °C 17.7 °C 1016.8 hPa Calm     86% 0 mm
22:54 20.1 °C 17.8 °C 1016.8 hPa Calm     87% 0 mm
22:59 20.1 °C 17.8 °C 1016.8 hPa Calm     87% 0 mm
23:04 20.1 °C 17.8 °C 1016.8 hPa Calm     87% 0 mm
23:09 20.1 °C 17.8 °C 1016.8 hPa Calm     87% 0 mm
23:14 20.1 °C 17.9 °C 1016.8 hPa Calm     87% 0 mm
23:19 20.1 °C 17.8 °C 1016.8 hPa Calm     87% 0 mm
23:24 20.1 °C 17.9 °C 1016.8 hPa Calm     87% 0 mm
23:29 20.1 °C 17.9 °C 1016.8 hPa Calm     87% 0 mm
23:34 20.1 °C 17.8 °C 1016.5 hPa Calm     87% 0 mm
23:39 20.1 °C 17.9 °C 1016.5 hPa Calm     87% 0 mm
23:44 20.2 °C 17.9 °C 1016.5 hPa Calm     87% 0 mm
23:49 20.2 °C 17.9 °C 1016.5 hPa Calm     87% 0 mm
23:54 20.2 °C 18.2 °C 1016.5 hPa Calm     88% 0 mm
23:59 20.3 °C 18.3 °C 1016.5 hPa Calm     88% 0 mm
Buffalo, New York, USA
Compliments of Weather Underground - 2.5 mb